createdAt,value
2019-02-28T00:03:59.077Z,6.81
2019-02-28T00:08:06.424Z,6.75
2019-02-28T00:12:14.299Z,6.75
2019-02-28T00:16:21.429Z,6.74
2019-02-28T00:20:29.187Z,6.79
2019-02-28T00:24:36.960Z,6.85
2019-02-28T00:28:43.845Z,6.87
2019-02-28T00:32:50.793Z,6.93
2019-02-28T00:36:57.616Z,6.95
2019-02-28T00:41:05.580Z,6.97
2019-02-28T00:45:12.803Z,7.01
2019-02-28T00:49:19.652Z,7.02
2019-02-28T00:53:26.462Z,7.10
2019-02-28T00:57:35.388Z,7.09
2019-02-28T01:01:45.884Z,6.97
2019-02-28T01:05:52.032Z,6.96
2019-02-28T01:10:01.360Z,6.90
2019-02-28T01:14:07.533Z,6.94
2019-02-28T01:18:14.489Z,6.95
2019-02-28T01:22:21.445Z,7.07
2019-02-28T01:26:30.457Z,7.16
2019-02-28T01:30:37.093Z,7.21
2019-02-28T01:34:45.511Z,7.28
2019-02-28T01:38:57.573Z,7.30
2019-02-28T01:43:00.908Z,7.40
2019-02-28T01:47:07.901Z,7.49
2019-02-28T01:51:14.814Z,7.48
2019-02-28T01:55:21.644Z,7.51
2019-02-28T01:59:28.497Z,7.58
2019-02-28T02:03:36.342Z,7.65
2019-02-28T02:07:43.325Z,7.68
2019-02-28T02:11:50.222Z,7.65
2019-02-28T02:15:57.078Z,7.63
2019-02-28T02:20:04.034Z,7.55
2019-02-28T02:24:10.947Z,7.47
2019-02-28T02:28:17.917Z,7.38
2019-02-28T02:32:24.738Z,7.34
2019-02-28T02:36:31.574Z,7.35
2019-02-28T02:40:38.404Z,7.31
2019-02-28T02:44:45.235Z,7.35
2019-02-28T02:48:52.086Z,7.28
2019-02-28T02:53:05.039Z,7.21
2019-02-28T02:57:07.547Z,7.22
2019-02-28T03:01:14.505Z,7.10
2019-02-28T03:05:21.483Z,6.98
2019-02-28T03:09:28.383Z,6.84
2019-02-28T03:13:42.120Z,6.76
2019-02-28T03:17:55.726Z,6.67
2019-02-28T03:22:02.618Z,6.59
2019-02-28T03:26:09.504Z,6.61
2019-02-28T03:30:27.846Z,6.58
2019-02-28T03:34:25.997Z,6.58
2019-02-28T03:38:32.862Z,6.58
2019-02-28T03:42:39.841Z,6.48
2019-02-28T03:46:47.899Z,6.52
2019-02-28T03:50:55.553Z,6.47
2019-02-28T03:55:04.760Z,6.48
2019-02-28T03:59:18.233Z,6.48
2019-02-28T04:03:20.528Z,6.37
2019-02-28T04:07:27.491Z,6.36
2019-02-28T04:11:34.377Z,6.38
2019-02-28T04:15:49.739Z,6.35
2019-02-28T04:19:50.030Z,6.34
2019-02-28T04:23:56.852Z,6.33
2019-02-28T04:28:03.778Z,6.36
2019-02-28T04:32:10.728Z,6.27
2019-02-28T04:36:17.559Z,6.30
2019-02-28T04:40:26.992Z,6.31
2019-02-28T04:44:33.063Z,6.24
2019-02-28T04:48:39.985Z,6.36
2019-02-28T04:52:48.175Z,6.32
2019-02-28T04:56:55.384Z,6.32
2019-02-28T05:01:02.268Z,6.40
2019-02-28T05:05:12.657Z,6.39
2019-02-28T05:09:18.297Z,6.39
2019-02-28T05:13:25.161Z,6.44
2019-02-28T05:17:32.041Z,6.36
2019-02-28T05:21:38.890Z,6.47
2019-02-28T05:25:45.776Z,6.45
2019-02-28T05:29:52.793Z,6.44
2019-02-28T05:33:59.631Z,6.44
2019-02-28T05:38:06.481Z,6.43
2019-02-28T05:42:13.355Z,6.36
2019-02-28T05:46:23.502Z,6.36
2019-02-28T05:50:29.328Z,6.31
2019-02-28T05:54:36.338Z,6.17
2019-02-28T05:58:43.354Z,6.05
2019-02-28T06:02:50.452Z,6.11
2019-02-28T06:06:57.440Z,6.18
2019-02-28T06:11:04.334Z,5.97
2019-02-28T06:15:11.975Z,5.76
2019-02-28T06:19:20.328Z,5.63
2019-02-28T06:23:28.508Z,5.65
2019-02-28T06:27:41.710Z,5.50
2019-02-28T06:31:49.843Z,5.38
2019-02-28T06:35:57.360Z,5.37
2019-02-28T06:40:09.012Z,5.36
2019-02-28T06:44:16.222Z,5.36
2019-02-28T06:48:25.929Z,5.29
2019-02-28T06:52:31.840Z,5.41
2019-02-28T06:56:38.736Z,5.38
2019-02-28T07:00:47.418Z,5.47
2019-02-28T07:04:54.256Z,5.51
2019-02-28T07:09:02.494Z,5.63
2019-02-28T07:13:11.929Z,5.54
2019-02-28T07:17:19.011Z,5.79
2019-02-28T07:21:26.121Z,5.73
2019-02-28T07:25:33.189Z,5.91
2019-02-28T07:29:42.734Z,5.99
2019-02-28T07:33:48.918Z,5.98
2019-02-28T07:37:55.800Z,6.05
2019-02-28T07:42:03.053Z,6.11
2019-02-28T07:46:10.072Z,6.28
2019-02-28T07:50:17.357Z,6.29
2019-02-28T07:54:24.254Z,6.52
2019-02-28T07:58:33.492Z,6.80
2019-02-28T08:02:40.021Z,6.81
2019-02-28T08:06:46.959Z,7.11
2019-02-28T08:10:53.866Z,7.30
2019-02-28T08:15:00.701Z,7.85
2019-02-28T08:19:07.878Z,8.17
2019-02-28T08:23:15.710Z,8.62
2019-02-28T08:27:25.419Z,9.56
2019-02-28T08:31:32.000Z,10.08
2019-02-28T08:35:39.901Z,10.14
2019-02-28T08:39:47.069Z,10.59
2019-02-28T08:43:55.007Z,10.96
2019-02-28T08:48:01.944Z,11.21
2019-02-28T08:52:08.900Z,11.48
2019-02-28T08:56:15.781Z,12.39
2019-02-28T09:00:22.928Z,13.00
2019-02-28T09:04:41.031Z,13.53
2019-02-28T09:08:42.770Z,13.84
2019-02-28T09:12:50.168Z,14.32
2019-02-28T09:17:00.070Z,14.68
2019-02-28T09:21:07.055Z,14.84
2019-02-28T09:25:21.421Z,14.73
2019-02-28T09:29:24.668Z,14.42
2019-02-28T09:33:31.613Z,14.30
2019-02-28T09:37:38.793Z,14.22
2019-02-28T09:41:46.261Z,14.58
2019-02-28T09:45:56.839Z,14.59
2019-02-28T09:50:03.978Z,14.85
2019-02-28T09:54:11.136Z,15.07
2019-02-28T09:58:18.504Z,15.16
2019-02-28T10:02:25.540Z,15.15
2019-02-28T10:06:33.326Z,15.19
2019-02-28T10:10:40.547Z,14.99
2019-02-28T10:14:48.613Z,14.89
2019-02-28T10:18:55.699Z,15.51
2019-02-28T10:23:02.602Z,15.72
2019-02-28T10:27:09.694Z,15.67
2019-02-28T10:31:16.796Z,15.74
2019-02-28T10:35:23.766Z,15.43
2019-02-28T10:39:30.865Z,15.15
2019-02-28T10:43:38.031Z,15.14
2019-02-28T10:47:45.221Z,14.82
2019-02-28T10:51:52.307Z,15.16
2019-02-28T10:55:59.410Z,15.24
2019-02-28T11:00:11.824Z,16.19
2019-02-28T11:04:18.797Z,15.73
2019-02-28T11:08:27.438Z,15.98
2019-02-28T11:12:34.458Z,15.35
2019-02-28T11:16:41.654Z,15.69
2019-02-28T11:20:48.616Z,15.42
2019-02-28T11:25:00.481Z,15.43
2019-02-28T11:29:04.443Z,15.40
2019-02-28T11:33:11.728Z,15.56
2019-02-28T11:37:18.677Z,15.55
2019-02-28T11:41:25.681Z,15.45
2019-02-28T11:45:32.893Z,15.42
2019-02-28T11:49:39.892Z,15.58
2019-02-28T11:53:46.962Z,15.36
2019-02-28T11:57:53.947Z,15.48
2019-02-28T12:02:00.798Z,15.55
2019-02-28T12:06:07.676Z,15.73
2019-02-28T12:10:14.714Z,15.68
2019-02-28T12:14:22.755Z,15.87
2019-02-28T12:18:29.667Z,15.99
2019-02-28T12:22:36.495Z,16.46
2019-02-28T12:26:43.622Z,17.48
2019-02-28T12:30:50.577Z,18.59
2019-02-28T12:35:01.479Z,19.29
2019-02-28T12:39:08.588Z,19.78
2019-02-28T12:43:15.834Z,20.21
2019-02-28T12:47:23.593Z,20.15
2019-02-28T12:51:30.505Z,20.69
2019-02-28T12:55:39.040Z,20.82
2019-02-28T12:59:47.043Z,21.52
2019-02-28T13:04:00.193Z,21.17
2019-02-28T13:08:05.779Z,21.79
2019-02-28T13:12:12.106Z,21.29
2019-02-28T13:16:20.793Z,22.16
2019-02-28T13:20:33.528Z,21.16
2019-02-28T13:24:38.233Z,21.64
2019-02-28T13:28:45.250Z,21.23
2019-02-28T13:32:52.205Z,21.50
2019-02-28T13:37:02.831Z,22.19
2019-02-28T13:41:08.090Z,20.86
2019-02-28T13:45:22.270Z,21.65
2019-02-28T13:49:24.724Z,21.80
2019-02-28T13:53:31.955Z,21.84
2019-02-28T13:57:40.691Z,22.04
2019-02-28T14:01:52.141Z,21.87
2019-02-28T14:05:57.530Z,22.03
2019-02-28T14:10:05.233Z,22.13
2019-02-28T14:14:12.449Z,21.58
2019-02-28T14:18:19.511Z,21.13
2019-02-28T14:22:26.564Z,21.36
2019-02-28T14:26:42.399Z,20.71
2019-02-28T14:30:42.435Z,20.35
2019-02-28T14:34:49.325Z,20.18
2019-02-28T14:38:58.735Z,19.89
2019-02-28T14:43:19.843Z,19.87
2019-02-28T14:47:28.510Z,19.76
2019-02-28T14:51:36.365Z,19.67
2019-02-28T14:56:04.390Z,19.38
2019-02-28T15:00:25.057Z,19.33
2019-02-28T15:04:32.004Z,19.08
2019-02-28T15:08:39.260Z,19.07
2019-02-28T15:12:46.429Z,19.20
2019-02-28T15:16:53.396Z,18.89
2019-02-28T15:21:00.441Z,18.76
2019-02-28T15:25:08.243Z,18.86
2019-02-28T15:29:15.340Z,18.74
2019-02-28T15:33:22.310Z,18.76
2019-02-28T15:37:30.451Z,18.60
2019-02-28T15:41:38.085Z,18.41
2019-02-28T15:45:45.268Z,18.06
2019-02-28T15:49:52.920Z,18.00
2019-02-28T15:53:59.918Z,17.80
2019-02-28T15:58:07.261Z,17.94
2019-02-28T16:02:15.615Z,17.72
2019-02-28T16:06:25.086Z,17.43
2019-02-28T16:10:32.959Z,17.49
2019-02-28T16:14:40.178Z,17.33
2019-02-28T16:18:47.995Z,17.35
2019-02-28T16:22:55.361Z,17.32
2019-02-28T16:27:02.408Z,17.11
2019-02-28T16:31:09.405Z,16.96
2019-02-28T16:35:16.256Z,16.82
2019-02-28T16:39:24.854Z,16.79
2019-02-28T16:43:33.909Z,16.62
2019-02-28T16:47:40.532Z,16.49
2019-02-28T16:51:47.387Z,16.25
2019-02-28T16:55:54.319Z,16.18
2019-02-28T17:00:04.029Z,15.94
2019-02-28T17:04:13.528Z,15.67
2019-02-28T17:08:20.113Z,15.72
2019-02-28T17:12:54.295Z,15.39
2019-02-28T17:17:08.737Z,15.35
2019-02-28T17:21:17.923Z,14.90
2019-02-28T17:25:23.703Z,14.81
2019-02-28T17:29:36.206Z,14.56
2019-02-28T17:33:46.800Z,14.41
2019-02-28T17:37:52.468Z,14.30
2019-02-28T17:42:08.096Z,13.98
2019-02-28T17:46:10.325Z,13.84
2019-02-28T17:50:59.141Z,13.90
2019-02-28T17:55:52.647Z,13.75
2019-02-28T18:01:28.661Z,13.71
2019-02-28T18:06:26.924Z,13.67
2019-02-28T18:11:24.711Z,13.55
2019-02-28T18:16:30.460Z,13.62
2019-02-28T18:21:21.810Z,13.53
2019-02-28T18:26:38.691Z,13.55
2019-02-28T18:31:15.086Z,13.44
2019-02-28T18:35:22.062Z,13.30
2019-02-28T18:39:29.003Z,13.35
2019-02-28T18:43:36.306Z,13.33
2019-02-28T18:47:43.359Z,13.23
2019-02-28T18:51:51.449Z,13.29
2019-02-28T18:55:58.558Z,13.28
2019-02-28T19:00:08.543Z,13.09
2019-02-28T19:04:15.237Z,13.08
2019-02-28T19:08:22.567Z,13.11
2019-02-28T19:12:29.633Z,12.89
2019-02-28T19:16:36.692Z,12.87
2019-02-28T19:20:43.837Z,12.79
2019-02-28T19:24:53.667Z,12.78
2019-02-28T19:29:00.613Z,12.71
2019-02-28T19:33:09.771Z,12.76
2019-02-28T19:37:16.989Z,12.55
2019-02-28T19:41:24.334Z,12.58
2019-02-28T19:45:32.095Z,12.58
2019-02-28T19:49:40.379Z,12.39
2019-02-28T19:53:47.737Z,12.37
2019-02-28T19:57:54.578Z,12.38
2019-02-28T20:02:01.569Z,12.34
2019-02-28T20:06:08.713Z,12.45
2019-02-28T20:10:17.243Z,12.36
2019-02-28T20:14:24.345Z,12.15
2019-02-28T20:18:31.314Z,12.28
2019-02-28T20:22:38.402Z,11.97
2019-02-28T20:26:45.530Z,12.11
2019-02-28T20:30:55.338Z,11.95
2019-02-28T20:35:02.565Z,11.83
2019-02-28T20:39:13.843Z,11.94
2019-02-28T20:43:21.888Z,11.94
2019-02-28T20:47:35.031Z,11.76
2019-02-28T20:51:42.151Z,11.88
2019-02-28T20:55:49.180Z,11.64
2019-02-28T20:59:59.820Z,11.69
2019-02-28T21:04:06.653Z,11.63
2019-02-28T21:08:21.293Z,11.61
2019-02-28T21:12:28.458Z,11.79
2019-02-28T21:16:35.519Z,11.83
2019-02-28T21:20:47.826Z,11.59
2019-02-28T21:24:54.919Z,11.82
2019-02-28T21:29:01.943Z,11.81
2019-02-28T21:33:09.062Z,11.80
2019-02-28T21:37:16.297Z,11.60
2019-02-28T21:41:23.235Z,11.64
2019-02-28T21:45:30.380Z,11.63
2019-02-28T21:49:37.328Z,11.61
2019-02-28T21:53:47.461Z,11.58
2019-02-28T21:57:58.815Z,11.44
2019-02-28T22:02:06.547Z,11.36
2019-02-28T22:06:13.519Z,11.39
2019-02-28T22:10:22.926Z,11.34
2019-02-28T22:14:33.684Z,11.29
2019-02-28T22:18:40.711Z,11.25
2019-02-28T22:22:47.506Z,11.30
2019-02-28T22:26:56.905Z,11.39
2019-02-28T22:31:31.499Z,11.23
2019-02-28T22:35:41.976Z,11.28
2019-02-28T22:39:48.992Z,11.22
2019-02-28T22:43:55.944Z,11.23
2019-02-28T22:48:05.553Z,11.08
2019-02-28T22:52:13.803Z,11.19
2019-02-28T22:56:20.968Z,11.16
2019-02-28T23:01:04.913Z,11.10
2019-02-28T23:05:12.666Z,11.03
2019-02-28T23:09:21.473Z,11.11
2019-02-28T23:13:28.364Z,11.09
2019-02-28T23:17:35.169Z,11.14
2019-02-28T23:21:42.091Z,11.09
2019-02-28T23:25:48.969Z,11.09
2019-02-28T23:31:07.837Z,11.15
2019-02-28T23:35:24.788Z,11.11
2019-02-28T23:39:33.287Z,11.08
2019-02-28T23:43:40.252Z,11.00
2019-02-28T23:47:47.372Z,10.95
2019-02-28T23:51:54.257Z,10.96
2019-02-28T23:56:01.149Z,10.97
